sensor_id;sensor_type;location;lat;lon;timestamp;temperature;humidity
17687;DHT22;8962;52.538;13.266;2023-08-31T00:00:10;16.40;99.90
17687;DHT22;8962;52.538;13.266;2023-08-31T00:02:42;16.40;99.90
17687;DHT22;8962;52.538;13.266;2023-08-31T00:05:09;16.40;99.90
17687;DHT22;8962;52.538;13.266;2023-08-31T00:07:36;16.40;99.90
17687;DHT22;8962;52.538;13.266;2023-08-31T00:10:04;16.40;99.90
17687;DHT22;8962;52.538;13.266;2023-08-31T00:12:35;16.30;99.90
17687;DHT22;8962;52.538;13.266;2023-08-31T00:15:04;16.50;99.90
17687;DHT22;8962;52.538;13.266;2023-08-31T00:17:31;16.50;99.90
17687;DHT22;8962;52.538;13.266;2023-08-31T00:19:59;16.50;99.90
17687;DHT22;8962;52.538;13.266;2023-08-31T00:22:28;16.40;99.90
17687;DHT22;8962;52.538;13.266;2023-08-31T00:24:55;16.40;99.90
17687;DHT22;8962;52.538;13.266;2023-08-31T00:27:23;16.40;99.90
17687;DHT22;8962;52.538;13.266;2023-08-31T00:29:50;16.40;99.90
17687;DHT22;8962;52.538;13.266;2023-08-31T00:32:17;16.40;99.90
17687;DHT22;8962;52.538;13.266;2023-08-31T00:34:47;16.40;99.90
17687;DHT22;8962;52.538;13.266;2023-08-31T00:37:16;16.40;99.90
17687;DHT22;8962;52.538;13.266;2023-08-31T00:39:44;16.30;99.90
17687;DHT22;8962;52.538;13.266;2023-08-31T00:42:12;16.30;99.90
17687;DHT22;8962;52.538;13.266;2023-08-31T00:44:40;16.40;99.90
17687;DHT22;8962;52.538;13.266;2023-08-31T00:47:08;16.30;99.90
17687;DHT22;8962;52.538;13.266;2023-08-31T00:49:37;16.30;99.90
17687;DHT22;8962;52.538;13.266;2023-08-31T00:52:05;16.20;99.90
17687;DHT22;8962;52.538;13.266;2023-08-31T00:54:37;16.20;99.90
17687;DHT22;8962;52.538;13.266;2023-08-31T00:57:05;16.20;99.90
17687;DHT22;8962;52.538;13.266;2023-08-31T00:59:32;16.10;99.90
17687;DHT22;8962;52.538;13.266;2023-08-31T01:02:04;16.10;99.90
17687;DHT22;8962;52.538;13.266;2023-08-31T01:04:41;16.10;99.90
17687;DHT22;8962;52.538;13.266;2023-08-31T01:07:16;16.00;99.90
17687;DHT22;8962;52.538;13.266;2023-08-31T01:09:56;16.00;99.90
17687;DHT22;8962;52.538;13.266;2023-08-31T01:12:32;16.00;99.90
17687;DHT22;8962;52.538;13.266;2023-08-31T01:15:04;16.00;99.90
17687;DHT22;8962;52.538;13.266;2023-08-31T01:17:39;15.90;99.90
17687;DHT22;8962;52.538;13.266;2023-08-31T01:20:09;15.90;99.90
17687;DHT22;8962;52.538;13.266;2023-08-31T01:22:52;15.80;99.90
17687;DHT22;8962;52.538;13.266;2023-08-31T01:25:26;15.80;99.90
17687;DHT22;8962;52.538;13.266;2023-08-31T01:27:56;15.80;99.90
17687;DHT22;8962;52.538;13.266;2023-08-31T01:30:24;15.70;99.90
17687;DHT22;8962;52.538;13.266;2023-08-31T01:32:51;15.60;99.90
17687;DHT22;8962;52.538;13.266;2023-08-31T01:35:18;15.60;99.90
17687;DHT22;8962;52.538;13.266;2023-08-31T01:37:51;15.60;99.90
17687;DHT22;8962;52.538;13.266;2023-08-31T01:40:23;15.60;99.90
17687;DHT22;8962;52.538;13.266;2023-08-31T01:42:55;15.50;99.90
17687;DHT22;8962;52.538;13.266;2023-08-31T01:45:24;15.40;99.90
17687;DHT22;8962;52.538;13.266;2023-08-31T01:47:52;15.40;99.90
17687;DHT22;8962;52.538;13.266;2023-08-31T01:50:19;15.40;99.90
17687;DHT22;8962;52.538;13.266;2023-08-31T01:52:46;15.30;99.90
17687;DHT22;8962;52.538;13.266;2023-08-31T01:55:13;15.20;99.90
17687;DHT22;8962;52.538;13.266;2023-08-31T01:57:41;15.30;99.90
17687;DHT22;8962;52.538;13.266;2023-08-31T02:00:16;15.20;99.90
17687;DHT22;8962;52.538;13.266;2023-08-31T02:02:46;15.20;99.90
17687;DHT22;8962;52.538;13.266;2023-08-31T02:05:14;15.10;99.90
17687;DHT22;8962;52.538;13.266;2023-08-31T02:07:41;15.00;99.90
17687;DHT22;8962;52.538;13.266;2023-08-31T02:10:09;14.90;99.90
17687;DHT22;8962;52.538;13.266;2023-08-31T02:12:36;14.80;99.90
17687;DHT22;8962;52.538;13.266;2023-08-31T02:15:04;14.80;99.90
17687;DHT22;8962;52.538;13.266;2023-08-31T02:17:34;14.70;99.90
17687;DHT22;8962;52.538;13.266;2023-08-31T02:20:02;14.70;99.90
17687;DHT22;8962;52.538;13.266;2023-08-31T02:22:30;14.70;99.90
17687;DHT22;8962;52.538;13.266;2023-08-31T02:24:58;14.60;99.90
17687;DHT22;8962;52.538;13.266;2023-08-31T02:27:25;14.60;99.90
17687;DHT22;8962;52.538;13.266;2023-08-31T02:29:52;14.50;99.90
17687;DHT22;8962;52.538;13.266;2023-08-31T02:32:19;14.50;99.90
17687;DHT22;8962;52.538;13.266;2023-08-31T02:34:49;14.60;99.90
17687;DHT22;8962;52.538;13.266;2023-08-31T02:37:17;14.50;99.90
17687;DHT22;8962;52.538;13.266;2023-08-31T02:39:44;14.50;99.90
17687;DHT22;8962;52.538;13.266;2023-08-31T02:42:11;14.50;99.90
17687;DHT22;8962;52.538;13.266;2023-08-31T02:44:45;14.60;99.90
17687;DHT22;8962;52.538;13.266;2023-08-31T02:47:12;14.60;99.90
17687;DHT22;8962;52.538;13.266;2023-08-31T02:49:39;14.60;99.90
17687;DHT22;8962;52.538;13.266;2023-08-31T02:52:08;14.50;99.90
17687;DHT22;8962;52.538;13.266;2023-08-31T02:54:35;14.50;99.90
17687;DHT22;8962;52.538;13.266;2023-08-31T02:57:03;14.50;99.90
17687;DHT22;8962;52.538;13.266;2023-08-31T02:59:30;14.50;99.90
17687;DHT22;8962;52.538;13.266;2023-08-31T03:02:01;14.50;99.90
17687;DHT22;8962;52.538;13.266;2023-08-31T03:04:30;14.50;99.90
17687;DHT22;8962;52.538;13.266;2023-08-31T03:06:57;14.50;99.90
17687;DHT22;8962;52.538;13.266;2023-08-31T03:09:27;14.50;99.90
17687;DHT22;8962;52.538;13.266;2023-08-31T03:11:54;14.40;99.90
17687;DHT22;8962;52.538;13.266;2023-08-31T03:14:23;14.40;99.90
17687;DHT22;8962;52.538;13.266;2023-08-31T03:16:52;14.40;99.90
17687;DHT22;8962;52.538;13.266;2023-08-31T03:19:19;14.40;99.90
17687;DHT22;8962;52.538;13.266;2023-08-31T03:21:46;14.50;99.90
17687;DHT22;8962;52.538;13.266;2023-08-31T03:24:14;14.50;99.90
17687;DHT22;8962;52.538;13.266;2023-08-31T03:26:44;14.50;99.90
17687;DHT22;8962;52.538;13.266;2023-08-31T03:29:11;14.50;99.90
17687;DHT22;8962;52.538;13.266;2023-08-31T03:31:38;14.50;99.90
17687;DHT22;8962;52.538;13.266;2023-08-31T03:34:06;14.50;99.90
17687;DHT22;8962;52.538;13.266;2023-08-31T03:36:33;14.50;99.90
17687;DHT22;8962;52.538;13.266;2023-08-31T03:39:01;14.50;99.90
17687;DHT22;8962;52.538;13.266;2023-08-31T03:41:29;14.40;99.90
17687;DHT22;8962;52.538;13.266;2023-08-31T03:44:00;14.40;99.90
17687;DHT22;8962;52.538;13.266;2023-08-31T03:46:27;14.40;99.90
17687;DHT22;8962;52.538;13.266;2023-08-31T03:48:54;14.30;99.90
17687;DHT22;8962;52.538;13.266;2023-08-31T03:51:23;14.40;99.90
17687;DHT22;8962;52.538;13.266;2023-08-31T03:53:50;14.30;99.90
17687;DHT22;8962;52.538;13.266;2023-08-31T03:56:17;14.30;99.90
17687;DHT22;8962;52.538;13.266;2023-08-31T03:58:45;14.30;99.90
17687;DHT22;8962;52.538;13.266;2023-08-31T04:01:14;14.30;99.90
17687;DHT22;8962;52.538;13.266;2023-08-31T04:03:43;14.30;99.90
17687;DHT22;8962;52.538;13.266;2023-08-31T04:06:10;14.30;99.90
17687;DHT22;8962;52.538;13.266;2023-08-31T04:08:40;14.20;99.90
17687;DHT22;8962;52.538;13.266;2023-08-31T04:11:07;14.20;99.90
17687;DHT22;8962;52.538;13.266;2023-08-31T04:13:35;14.20;99.90
17687;DHT22;8962;52.538;13.266;2023-08-31T04:16:02;14.20;99.90
17687;DHT22;8962;52.538;13.266;2023-08-31T04:18:31;14.20;99.90
17687;DHT22;8962;52.538;13.266;2023-08-31T04:20:58;14.10;99.90
17687;DHT22;8962;52.538;13.266;2023-08-31T04:23:29;14.20;99.90
17687;DHT22;8962;52.538;13.266;2023-08-31T04:25:57;14.20;99.90
17687;DHT22;8962;52.538;13.266;2023-08-31T04:28:25;14.20;99.90
17687;DHT22;8962;52.538;13.266;2023-08-31T04:30:52;14.10;99.90
17687;DHT22;8962;52.538;13.266;2023-08-31T04:33:20;14.10;99.90
17687;DHT22;8962;52.538;13.266;2023-08-31T04:35:51;14.10;99.90
17687;DHT22;8962;52.538;13.266;2023-08-31T04:38:18;14.20;99.90
17687;DHT22;8962;52.538;13.266;2023-08-31T04:40:45;14.20;99.90
17687;DHT22;8962;52.538;13.266;2023-08-31T04:43:13;14.20;99.90
17687;DHT22;8962;52.538;13.266;2023-08-31T04:45:41;14.20;99.90
17687;DHT22;8962;52.538;13.266;2023-08-31T04:48:08;14.20;99.90
17687;DHT22;8962;52.538;13.266;2023-08-31T04:50:35;14.20;99.90
17687;DHT22;8962;52.538;13.266;2023-08-31T04:53:04;14.20;99.90
17687;DHT22;8962;52.538;13.266;2023-08-31T04:55:31;14.20;99.90
17687;DHT22;8962;52.538;13.266;2023-08-31T04:57:58;14.20;99.90
17687;DHT22;8962;52.538;13.266;2023-08-31T05:00:26;14.20;99.90
17687;DHT22;8962;52.538;13.266;2023-08-31T05:02:53;14.30;99.90
17687;DHT22;8962;52.538;13.266;2023-08-31T05:05:20;14.30;99.90
17687;DHT22;8962;52.538;13.266;2023-08-31T05:07:47;14.40;99.90
17687;DHT22;8962;52.538;13.266;2023-08-31T05:10:16;14.40;99.90
17687;DHT22;8962;52.538;13.266;2023-08-31T05:12:43;14.40;99.90
17687;DHT22;8962;52.538;13.266;2023-08-31T05:15:11;14.50;99.90
17687;DHT22;8962;52.538;13.266;2023-08-31T05:17:39;14.50;99.90
17687;DHT22;8962;52.538;13.266;2023-08-31T05:20:07;14.50;99.90
17687;DHT22;8962;52.538;13.266;2023-08-31T05:22:35;14.50;99.90
17687;DHT22;8962;52.538;13.266;2023-08-31T05:25:03;14.60;99.90
17687;DHT22;8962;52.538;13.266;2023-08-31T05:27:32;14.60;99.90
17687;DHT22;8962;52.538;13.266;2023-08-31T05:30:00;14.60;99.90
17687;DHT22;8962;52.538;13.266;2023-08-31T05:32:28;14.50;99.90
17687;DHT22;8962;52.538;13.266;2023-08-31T05:34:55;14.50;99.90
17687;DHT22;8962;52.538;13.266;2023-08-31T05:37:25;14.50;99.90
17687;DHT22;8962;52.538;13.266;2023-08-31T05:39:52;14.50;99.90
17687;DHT22;8962;52.538;13.266;2023-08-31T05:42:19;14.60;99.90
17687;DHT22;8962;52.538;13.266;2023-08-31T05:44:49;14.60;99.90
17687;DHT22;8962;52.538;13.266;2023-08-31T05:47:17;14.60;99.90
17687;DHT22;8962;52.538;13.266;2023-08-31T05:49:44;14.70;99.90
17687;DHT22;8962;52.538;13.266;2023-08-31T05:52:11;14.60;99.90
17687;DHT22;8962;52.538;13.266;2023-08-31T05:54:39;14.70;99.90
17687;DHT22;8962;52.538;13.266;2023-08-31T05:57:07;14.70;99.90
17687;DHT22;8962;52.538;13.266;2023-08-31T05:59:36;14.80;99.90
17687;DHT22;8962;52.538;13.266;2023-08-31T06:02:05;14.80;99.90
17687;DHT22;8962;52.538;13.266;2023-08-31T06:04:34;15.00;99.90
17687;DHT22;8962;52.538;13.266;2023-08-31T06:07:01;15.00;99.90
17687;DHT22;8962;52.538;13.266;2023-08-31T06:09:29;15.00;99.90
17687;DHT22;8962;52.538;13.266;2023-08-31T06:11:56;15.00;99.90
17687;DHT22;8962;52.538;13.266;2023-08-31T06:14:23;15.10;99.90
17687;DHT22;8962;52.538;13.266;2023-08-31T06:16:51;15.20;99.90
17687;DHT22;8962;52.538;13.266;2023-08-31T06:19:20;15.20;99.90
17687;DHT22;8962;52.538;13.266;2023-08-31T06:21:47;15.30;99.90
17687;DHT22;8962;52.538;13.266;2023-08-31T06:24:16;15.40;99.90
17687;DHT22;8962;52.538;13.266;2023-08-31T06:26:43;15.50;99.90
17687;DHT22;8962;52.538;13.266;2023-08-31T06:29:10;15.60;99.90
17687;DHT22;8962;52.538;13.266;2023-08-31T06:31:37;15.60;99.90
17687;DHT22;8962;52.538;13.266;2023-08-31T06:34:04;15.70;99.90
17687;DHT22;8962;52.538;13.266;2023-08-31T06:36:34;15.60;99.90
17687;DHT22;8962;52.538;13.266;2023-08-31T06:39:01;15.70;99.90
17687;DHT22;8962;52.538;13.266;2023-08-31T06:41:30;15.70;99.90
17687;DHT22;8962;52.538;13.266;2023-08-31T06:43:57;15.70;99.90
17687;DHT22;8962;52.538;13.266;2023-08-31T06:46:24;15.70;99.90
17687;DHT22;8962;52.538;13.266;2023-08-31T06:48:51;15.80;99.90
17687;DHT22;8962;52.538;13.266;2023-08-31T06:51:19;15.80;99.90
17687;DHT22;8962;52.538;13.266;2023-08-31T06:53:47;15.80;99.90
17687;DHT22;8962;52.538;13.266;2023-08-31T06:56:14;15.80;99.90
17687;DHT22;8962;52.538;13.266;2023-08-31T06:58:42;15.90;99.90
17687;DHT22;8962;52.538;13.266;2023-08-31T07:01:12;15.90;99.90
17687;DHT22;8962;52.538;13.266;2023-08-31T07:03:40;15.90;99.90
17687;DHT22;8962;52.538;13.266;2023-08-31T07:06:07;16.00;99.90
17687;DHT22;8962;52.538;13.266;2023-08-31T07:08:34;16.00;99.90
17687;DHT22;8962;52.538;13.266;2023-08-31T07:11:04;16.10;99.90
17687;DHT22;8962;52.538;13.266;2023-08-31T07:13:31;16.10;99.90
17687;DHT22;8962;52.538;13.266;2023-08-31T07:15:58;16.20;99.90
17687;DHT22;8962;52.538;13.266;2023-08-31T07:18:25;16.10;99.90
17687;DHT22;8962;52.538;13.266;2023-08-31T07:20:52;16.00;99.90
17687;DHT22;8962;52.538;13.266;2023-08-31T07:23:19;16.00;99.90
17687;DHT22;8962;52.538;13.266;2023-08-31T07:25:46;15.80;99.90
17687;DHT22;8962;52.538;13.266;2023-08-31T07:28:15;15.70;99.90
17687;DHT22;8962;52.538;13.266;2023-08-31T07:30:43;15.80;99.90
17687;DHT22;8962;52.538;13.266;2023-08-31T07:33:10;15.90;99.90
17687;DHT22;8962;52.538;13.266;2023-08-31T07:35:37;15.90;99.90
17687;DHT22;8962;52.538;13.266;2023-08-31T07:38:05;16.10;99.90
17687;DHT22;8962;52.538;13.266;2023-08-31T07:40:32;16.00;99.90
17687;DHT22;8962;52.538;13.266;2023-08-31T07:42:59;16.00;99.90
17687;DHT22;8962;52.538;13.266;2023-08-31T07:45:27;15.90;99.90
17687;DHT22;8962;52.538;13.266;2023-08-31T07:47:55;15.70;99.90
17687;DHT22;8962;52.538;13.266;2023-08-31T07:50:22;15.60;99.90
17687;DHT22;8962;52.538;13.266;2023-08-31T07:52:49;15.60;99.90
17687;DHT22;8962;52.538;13.266;2023-08-31T07:55:17;15.60;99.90
17687;DHT22;8962;52.538;13.266;2023-08-31T07:57:44;15.80;99.90
17687;DHT22;8962;52.538;13.266;2023-08-31T08:00:13;16.00;99.90
17687;DHT22;8962;52.538;13.266;2023-08-31T08:02:42;16.30;99.90
17687;DHT22;8962;52.538;13.266;2023-08-31T08:05:09;16.60;99.90
17687;DHT22;8962;52.538;13.266;2023-08-31T08:07:37;16.50;99.90
17687;DHT22;8962;52.538;13.266;2023-08-31T08:10:05;16.60;99.90
17687;DHT22;8962;52.538;13.266;2023-08-31T08:12:37;16.80;99.90
17687;DHT22;8962;52.538;13.266;2023-08-31T08:15:06;16.90;99.90
17687;DHT22;8962;52.538;13.266;2023-08-31T08:17:33;16.90;99.90
17687;DHT22;8962;52.538;13.266;2023-08-31T08:20:02;16.90;99.90
17687;DHT22;8962;52.538;13.266;2023-08-31T08:22:29;17.00;99.90
17687;DHT22;8962;52.538;13.266;2023-08-31T08:24:56;17.10;99.90
17687;DHT22;8962;52.538;13.266;2023-08-31T08:27:24;17.10;99.90
17687;DHT22;8962;52.538;13.266;2023-08-31T08:30:01;17.30;99.90
17687;DHT22;8962;52.538;13.266;2023-08-31T08:32:28;17.20;99.90
17687;DHT22;8962;52.538;13.266;2023-08-31T08:34:56;17.20;99.90
17687;DHT22;8962;52.538;13.266;2023-08-31T08:37:25;17.10;99.90
17687;DHT22;8962;52.538;13.266;2023-08-31T08:39:52;17.20;99.90
17687;DHT22;8962;52.538;13.266;2023-08-31T08:42:19;17.60;99.90
17687;DHT22;8962;52.538;13.266;2023-08-31T08:44:46;17.80;99.90
17687;DHT22;8962;52.538;13.266;2023-08-31T08:47:14;17.60;99.90
17687;DHT22;8962;52.538;13.266;2023-08-31T08:49:44;17.30;99.90
17687;DHT22;8962;52.538;13.266;2023-08-31T08:52:12;17.10;99.90
17687;DHT22;8962;52.538;13.266;2023-08-31T08:54:41;17.30;99.90
17687;DHT22;8962;52.538;13.266;2023-08-31T08:57:08;17.80;99.90
17687;DHT22;8962;52.538;13.266;2023-08-31T08:59:35;18.10;99.90
17687;DHT22;8962;52.538;13.266;2023-08-31T09:02:03;18.30;99.90
17687;DHT22;8962;52.538;13.266;2023-08-31T09:04:30;18.00;99.90
17687;DHT22;8962;52.538;13.266;2023-08-31T09:06:57;17.90;99.90
17687;DHT22;8962;52.538;13.266;2023-08-31T09:09:24;18.40;99.90
17687;DHT22;8962;52.538;13.266;2023-08-31T09:11:53;18.50;99.90
17687;DHT22;8962;52.538;13.266;2023-08-31T09:14:21;18.70;99.90
17687;DHT22;8962;52.538;13.266;2023-08-31T09:16:50;18.50;99.90
17687;DHT22;8962;52.538;13.266;2023-08-31T09:19:21;18.20;99.90
17687;DHT22;8962;52.538;13.266;2023-08-31T09:21:50;18.00;99.90
17687;DHT22;8962;52.538;13.266;2023-08-31T09:24:18;17.90;99.90
17687;DHT22;8962;52.538;13.266;2023-08-31T09:26:47;17.70;99.90
17687;DHT22;8962;52.538;13.266;2023-08-31T09:29:15;17.50;99.90
17687;DHT22;8962;52.538;13.266;2023-08-31T09:31:43;17.50;99.90
17687;DHT22;8962;52.538;13.266;2023-08-31T09:34:12;17.70;99.90
17687;DHT22;8962;52.538;13.266;2023-08-31T09:36:39;18.10;99.90
17687;DHT22;8962;52.538;13.266;2023-08-31T09:39:07;18.60;99.90
17687;DHT22;8962;52.538;13.266;2023-08-31T09:41:35;18.90;99.90
17687;DHT22;8962;52.538;13.266;2023-08-31T09:44:18;19.00;99.90
17687;DHT22;8962;52.538;13.266;2023-08-31T09:46:46;19.10;99.90
17687;DHT22;8962;52.538;13.266;2023-08-31T09:49:14;19.10;99.90
17687;DHT22;8962;52.538;13.266;2023-08-31T09:51:44;19.20;99.90
17687;DHT22;8962;52.538;13.266;2023-08-31T09:54:14;19.10;99.90
17687;DHT22;8962;52.538;13.266;2023-08-31T09:56:43;19.00;99.90
17687;DHT22;8962;52.538;13.266;2023-08-31T09:59:12;18.80;99.90
17687;DHT22;8962;52.538;13.266;2023-08-31T10:01:42;18.90;99.90
17687;DHT22;8962;52.538;13.266;2023-08-31T10:04:10;19.00;99.90
17687;DHT22;8962;52.538;13.266;2023-08-31T10:06:39;19.10;99.90
17687;DHT22;8962;52.538;13.266;2023-08-31T10:09:06;19.10;99.90
17687;DHT22;8962;52.538;13.266;2023-08-31T10:11:35;19.30;99.90
17687;DHT22;8962;52.538;13.266;2023-08-31T10:14:04;19.20;99.90
17687;DHT22;8962;52.538;13.266;2023-08-31T10:16:32;19.20;99.90
17687;DHT22;8962;52.538;13.266;2023-08-31T10:19:02;19.00;99.90
17687;DHT22;8962;52.538;13.266;2023-08-31T10:21:29;18.80;99.90
17687;DHT22;8962;52.538;13.266;2023-08-31T10:23:56;18.70;99.90
17687;DHT22;8962;52.538;13.266;2023-08-31T10:26:24;18.40;99.90
17687;DHT22;8962;52.538;13.266;2023-08-31T10:28:52;18.00;99.90
17687;DHT22;8962;52.538;13.266;2023-08-31T10:31:19;17.60;99.90
17687;DHT22;8962;52.538;13.266;2023-08-31T10:33:55;17.30;99.90
17687;DHT22;8962;52.538;13.266;2023-08-31T10:36:36;17.00;99.90
17687;DHT22;8962;52.538;13.266;2023-08-31T10:39:11;17.00;99.90
17687;DHT22;8962;52.538;13.266;2023-08-31T10:41:39;17.10;99.90
17687;DHT22;8962;52.538;13.266;2023-08-31T10:44:18;17.20;99.90
17687;DHT22;8962;52.538;13.266;2023-08-31T10:46:46;17.20;99.90
17687;DHT22;8962;52.538;13.266;2023-08-31T10:49:14;17.20;99.90
17687;DHT22;8962;52.538;13.266;2023-08-31T10:51:49;17.30;99.90
17687;DHT22;8962;52.538;13.266;2023-08-31T10:54:21;17.30;99.90
17687;DHT22;8962;52.538;13.266;2023-08-31T10:57:05;17.30;99.90
17687;DHT22;8962;52.538;13.266;2023-08-31T10:59:44;17.20;99.90
17687;DHT22;8962;52.538;13.266;2023-08-31T11:02:27;17.40;99.90
17687;DHT22;8962;52.538;13.266;2023-08-31T11:04:55;17.50;99.90
17687;DHT22;8962;52.538;13.266;2023-08-31T11:07:26;17.80;99.90
17687;DHT22;8962;52.538;13.266;2023-08-31T11:10:16;17.90;99.90
17687;DHT22;8962;52.538;13.266;2023-08-31T11:12:45;18.40;99.90
17687;DHT22;8962;52.538;13.266;2023-08-31T11:15:13;18.70;99.90
17687;DHT22;8962;52.538;13.266;2023-08-31T11:17:41;18.90;99.90
17687;DHT22;8962;52.538;13.266;2023-08-31T11:20:12;19.20;99.90
17687;DHT22;8962;52.538;13.266;2023-08-31T11:22:43;19.10;99.90
17687;DHT22;8962;52.538;13.266;2023-08-31T11:25:13;18.90;99.90
17687;DHT22;8962;52.538;13.266;2023-08-31T11:27:40;18.70;99.90
17687;DHT22;8962;52.538;13.266;2023-08-31T11:30:13;18.40;99.90
17687;DHT22;8962;52.538;13.266;2023-08-31T11:32:45;18.20;99.90
17687;DHT22;8962;52.538;13.266;2023-08-31T11:35:13;18.00;99.90
17687;DHT22;8962;52.538;13.266;2023-08-31T11:37:43;18.10;99.90
17687;DHT22;8962;52.538;13.266;2023-08-31T11:40:10;18.10;99.90
17687;DHT22;8962;52.538;13.266;2023-08-31T11:42:41;17.90;99.90
17687;DHT22;8962;52.538;13.266;2023-08-31T11:45:10;17.90;99.90
17687;DHT22;8962;52.538;13.266;2023-08-31T11:47:38;17.80;99.90
17687;DHT22;8962;52.538;13.266;2023-08-31T11:50:07;17.70;99.90
17687;DHT22;8962;52.538;13.266;2023-08-31T11:52:34;17.70;99.90
17687;DHT22;8962;52.538;13.266;2023-08-31T11:55:10;18.10;99.90
17687;DHT22;8962;52.538;13.266;2023-08-31T11:57:37;20.00;99.90
17687;DHT22;8962;52.538;13.266;2023-08-31T12:00:05;22.20;99.90
17687;DHT22;8962;52.538;13.266;2023-08-31T12:02:35;23.80;99.90
17687;DHT22;8962;52.538;13.266;2023-08-31T12:05:02;23.10;99.90
17687;DHT22;8962;52.538;13.266;2023-08-31T12:07:31;22.30;99.90
17687;DHT22;8962;52.538;13.266;2023-08-31T12:10:04;21.40;99.90
17687;DHT22;8962;52.538;13.266;2023-08-31T12:12:31;22.00;99.90
17687;DHT22;8962;52.538;13.266;2023-08-31T12:15:01;22.80;99.90
17687;DHT22;8962;52.538;13.266;2023-08-31T12:17:29;23.00;99.90
17687;DHT22;8962;52.538;13.266;2023-08-31T12:20:02;23.70;99.90
17687;DHT22;8962;52.538;13.266;2023-08-31T12:22:31;24.20;99.90
17687;DHT22;8962;52.538;13.266;2023-08-31T12:24:58;25.40;99.90
17687;DHT22;8962;52.538;13.266;2023-08-31T12:27:26;26.20;99.90
17687;DHT22;8962;52.538;13.266;2023-08-31T12:29:55;27.00;96.80
17687;DHT22;8962;52.538;13.266;2023-08-31T12:32:23;27.30;95.30
17687;DHT22;8962;52.538;13.266;2023-08-31T12:34:50;27.90;92.90
17687;DHT22;8962;52.538;13.266;2023-08-31T12:37:17;28.10;90.40
17687;DHT22;8962;52.538;13.266;2023-08-31T12:39:45;28.10;88.70
17687;DHT22;8962;52.538;13.266;2023-08-31T12:42:12;28.50;86.30
17687;DHT22;8962;52.538;13.266;2023-08-31T12:44:40;28.70;77.90
17687;DHT22;8962;52.538;13.266;2023-08-31T12:47:07;29.00;73.40
17687;DHT22;8962;52.538;13.266;2023-08-31T12:49:34;28.90;73.90
17687;DHT22;8962;52.538;13.266;2023-08-31T12:52:01;28.30;73.50
17687;DHT22;8962;52.538;13.266;2023-08-31T12:54:28;27.30;76.40
17687;DHT22;8962;52.538;13.266;2023-08-31T12:56:55;26.70;76.80
17687;DHT22;8962;52.538;13.266;2023-08-31T12:59:22;26.60;80.50
17687;DHT22;8962;52.538;13.266;2023-08-31T13:01:51;25.70;83.60
17687;DHT22;8962;52.538;13.266;2023-08-31T13:04:19;26.00;83.60
17687;DHT22;8962;52.538;13.266;2023-08-31T13:06:46;27.00;77.30
17687;DHT22;8962;52.538;13.266;2023-08-31T13:09:13;27.30;73.10
17687;DHT22;8962;52.538;13.266;2023-08-31T13:11:41;27.40;70.40
17687;DHT22;8962;52.538;13.266;2023-08-31T13:14:08;27.30;73.20
17687;DHT22;8962;52.538;13.266;2023-08-31T13:16:35;28.00;69.50
17687;DHT22;8962;52.538;13.266;2023-08-31T13:19:06;28.00;67.60
17687;DHT22;8962;52.538;13.266;2023-08-31T13:21:33;27.80;67.10
17687;DHT22;8962;52.538;13.266;2023-08-31T13:24:01;27.50;68.30
17687;DHT22;8962;52.538;13.266;2023-08-31T13:26:28;28.40;63.40
17687;DHT22;8962;52.538;13.266;2023-08-31T13:28:55;28.70;60.50
17687;DHT22;8962;52.538;13.266;2023-08-31T13:31:22;28.60;59.50
17687;DHT22;8962;52.538;13.266;2023-08-31T13:33:49;29.10;57.60
17687;DHT22;8962;52.538;13.266;2023-08-31T13:36:17;28.60;57.10
17687;DHT22;8962;52.538;13.266;2023-08-31T13:38:45;28.00;58.50
17687;DHT22;8962;52.538;13.266;2023-08-31T13:41:12;28.60;58.70
17687;DHT22;8962;52.538;13.266;2023-08-31T13:43:39;29.40;55.20
17687;DHT22;8962;52.538;13.266;2023-08-31T13:46:07;28.70;56.00
17687;DHT22;8962;52.538;13.266;2023-08-31T13:48:34;28.90;56.20
17687;DHT22;8962;52.538;13.266;2023-08-31T13:51:01;27.60;57.70
17687;DHT22;8962;52.538;13.266;2023-08-31T13:53:30;26.80;61.80
17687;DHT22;8962;52.538;13.266;2023-08-31T13:55:57;25.70;66.30
17687;DHT22;8962;52.538;13.266;2023-08-31T13:58:24;24.20;72.70
17687;DHT22;8962;52.538;13.266;2023-08-31T14:00:51;22.70;80.10
17687;DHT22;8962;52.538;13.266;2023-08-31T14:03:18;22.00;87.70
17687;DHT22;8962;52.538;13.266;2023-08-31T14:05:47;21.90;90.40
17687;DHT22;8962;52.538;13.266;2023-08-31T14:08:15;21.90;90.90
17687;DHT22;8962;52.538;13.266;2023-08-31T14:10:43;21.50;92.50
17687;DHT22;8962;52.538;13.266;2023-08-31T14:13:11;22.30;92.50
17687;DHT22;8962;52.538;13.266;2023-08-31T14:15:38;24.20;88.60
17687;DHT22;8962;52.538;13.266;2023-08-31T14:18:11;25.70;77.50
17687;DHT22;8962;52.538;13.266;2023-08-31T14:20:40;26.50;71.70
17687;DHT22;8962;52.538;13.266;2023-08-31T14:23:08;26.70;69.60
17687;DHT22;8962;52.538;13.266;2023-08-31T14:25:35;25.90;68.20
17687;DHT22;8962;52.538;13.266;2023-08-31T14:28:05;24.40;70.40
17687;DHT22;8962;52.538;13.266;2023-08-31T14:30:34;23.00;76.80
17687;DHT22;8962;52.538;13.266;2023-08-31T14:33:01;21.70;81.10
17687;DHT22;8962;52.538;13.266;2023-08-31T14:35:28;21.10;82.80
17687;DHT22;8962;52.538;13.266;2023-08-31T14:37:56;20.60;84.60
17687;DHT22;8962;52.538;13.266;2023-08-31T14:40:24;20.00;88.40
17687;DHT22;8962;52.538;13.266;2023-08-31T14:42:51;19.50;90.00
17687;DHT22;8962;52.538;13.266;2023-08-31T14:45:19;19.10;91.80
17687;DHT22;8962;52.538;13.266;2023-08-31T14:47:46;18.30;96.80
17687;DHT22;8962;52.538;13.266;2023-08-31T14:50:14;17.30;99.90
17687;DHT22;8962;52.538;13.266;2023-08-31T14:52:41;16.80;99.90
17687;DHT22;8962;52.538;13.266;2023-08-31T14:55:08;16.30;99.90
17687;DHT22;8962;52.538;13.266;2023-08-31T14:57:36;16.20;99.90
17687;DHT22;8962;52.538;13.266;2023-08-31T15:00:03;16.20;99.90
17687;DHT22;8962;52.538;13.266;2023-08-31T15:02:34;16.10;99.90
17687;DHT22;8962;52.538;13.266;2023-08-31T15:05:01;16.10;99.90
17687;DHT22;8962;52.538;13.266;2023-08-31T15:07:28;16.30;99.90
17687;DHT22;8962;52.538;13.266;2023-08-31T15:09:55;16.40;99.90
17687;DHT22;8962;52.538;13.266;2023-08-31T15:12:22;16.60;99.90
17687;DHT22;8962;52.538;13.266;2023-08-31T15:14:49;16.70;99.90
17687;DHT22;8962;52.538;13.266;2023-08-31T15:17:16;16.70;99.90
17687;DHT22;8962;52.538;13.266;2023-08-31T15:19:45;16.70;99.90
17687;DHT22;8962;52.538;13.266;2023-08-31T15:22:12;17.00;99.90
17687;DHT22;8962;52.538;13.266;2023-08-31T15:24:39;16.90;99.90
17687;DHT22;8962;52.538;13.266;2023-08-31T15:27:08;16.70;99.90
17687;DHT22;8962;52.538;13.266;2023-08-31T15:29:35;16.20;99.90
17687;DHT22;8962;52.538;13.266;2023-08-31T15:32:03;16.10;99.90
17687;DHT22;8962;52.538;13.266;2023-08-31T15:34:30;16.00;99.90
17687;DHT22;8962;52.538;13.266;2023-08-31T15:37:01;16.00;99.90